createdAt,value
2023-02-20T00:01:53.606Z,19.35
2023-02-20T00:04:21.296Z,15.27
2023-02-20T00:06:50.577Z,17.70
2023-02-20T00:09:17.825Z,17.88
2023-02-20T00:11:47.579Z,8.02
2023-02-20T00:14:14.992Z,14.05
2023-02-20T00:16:47.520Z,15.70
2023-02-20T00:19:22.637Z,11.77
2023-02-20T00:21:52.960Z,16.90
2023-02-20T00:24:20.482Z,11.88
2023-02-20T00:26:51.638Z,21.33
2023-02-20T00:29:25.946Z,14.77
2023-02-20T00:31:57.171Z,16.05
2023-02-20T00:34:26.982Z,20.35
2023-02-20T00:36:54.396Z,18.02
2023-02-20T00:39:22.927Z,15.57
2023-02-20T00:41:56.469Z,20.88
2023-02-20T00:44:30.874Z,17.15
2023-02-20T00:46:59.231Z,16.88
2023-02-20T00:49:31.427Z,18.83
2023-02-20T00:51:58.878Z,10.20
2023-02-20T00:54:28.073Z,22.15
2023-02-20T00:57:06.466Z,28.48
2023-02-20T00:59:38.965Z,20.58
2023-02-20T01:02:06.123Z,19.25
2023-02-20T01:04:34.772Z,21.55
2023-02-20T01:07:03.045Z,27.63
2023-02-20T01:09:30.251Z,22.45
2023-02-20T01:12:03.608Z,14.10
2023-02-20T01:14:33.220Z,30.67
2023-02-20T01:17:01.648Z,25.38
2023-02-20T01:19:29.333Z,21.42
2023-02-20T01:21:58.767Z,30.15
2023-02-20T01:24:26.251Z,18.67
2023-02-20T01:26:53.507Z,31.40
2023-02-20T01:29:20.895Z,26.02
2023-02-20T01:31:49.178Z,20.25
2023-02-20T01:34:18.021Z,21.67
2023-02-20T01:36:49.058Z,26.13
2023-02-20T01:39:20.275Z,30.27
2023-02-20T01:41:48.375Z,35.40
2023-02-20T01:44:24.759Z,25.40
2023-02-20T01:46:53.563Z,34.53
2023-02-20T01:49:47.103Z,29.55
2023-02-20T01:52:24.520Z,29.73
2023-02-20T01:54:57.742Z,29.25
2023-02-20T01:57:33.800Z,23.63
2023-02-20T02:00:07.754Z,23.25
2023-02-20T02:02:41.114Z,22.85
2023-02-20T02:05:18.439Z,25.55
2023-02-20T02:07:46.745Z,13.50
2023-02-20T02:10:17.174Z,21.25
2023-02-20T02:12:47.352Z,23.33
2023-02-20T02:15:15.976Z,35.42
2023-02-20T02:18:02.033Z,25.98
2023-02-20T02:20:30.342Z,29.10
2023-02-20T02:23:16.522Z,40.33
2023-02-20T02:25:50.141Z,28.42
2023-02-20T02:28:36.163Z,37.50
2023-02-20T02:31:06.233Z,38.08
2023-02-20T02:33:46.775Z,33.72
2023-02-20T02:36:29.426Z,31.38
2023-02-20T02:39:15.615Z,31.05
2023-02-20T02:42:05.691Z,28.70
2023-02-20T02:44:36.085Z,33.13
2023-02-20T02:47:06.692Z,50.10
2023-02-20T02:49:51.810Z,36.97
2023-02-20T02:52:45.980Z,23.33
2023-02-20T02:55:14.417Z,35.42
2023-02-20T02:57:41.713Z,33.00
2023-02-20T03:00:13.585Z,26.15
2023-02-20T03:02:49.884Z,33.92
2023-02-20T03:05:20.302Z,36.90
2023-02-20T03:07:52.746Z,21.13
2023-02-20T03:10:31.605Z,23.70
2023-02-20T03:13:03.131Z,24.00
2023-02-20T03:15:37.858Z,36.05
2023-02-20T03:18:23.943Z,36.78
2023-02-20T03:20:56.385Z,36.95
2023-02-20T03:23:33.309Z,32.50
2023-02-20T03:26:19.261Z,39.65
2023-02-20T03:28:52.660Z,27.73
2023-02-20T03:31:38.051Z,47.20
2023-02-20T03:34:36.634Z,26.88
2023-02-20T03:37:24.809Z,29.90
2023-02-20T03:40:17.409Z,38.47
2023-02-20T03:43:07.793Z,21.42
2023-02-20T03:45:37.180Z,38.80
2023-02-20T03:48:17.312Z,40.78
2023-02-20T03:50:46.732Z,36.55
2023-02-20T03:53:15.489Z,24.52
2023-02-20T03:55:42.894Z,32.80
2023-02-20T03:58:12.065Z,29.10
2023-02-20T04:00:45.534Z,27.30
2023-02-20T04:03:17.272Z,35.88
2023-02-20T04:05:45.704Z,42.85
2023-02-20T04:08:21.454Z,34.20
2023-02-20T04:11:01.352Z,48.97
2023-02-20T04:13:29.627Z,25.27
2023-02-20T04:16:00.354Z,38.55
2023-02-20T04:18:28.387Z,27.23
2023-02-20T04:20:59.781Z,47.42
2023-02-20T04:26:24.529Z,30.10
2023-02-20T04:28:54.560Z,19.30
2023-02-20T04:31:22.297Z,37.33
2023-02-20T04:33:51.456Z,33.22
2023-02-20T04:36:18.876Z,41.78
2023-02-20T04:38:46.541Z,23.73
2023-02-20T04:41:15.755Z,19.60
2023-02-20T04:43:43.184Z,15.38
2023-02-20T04:46:17.346Z,25.23
2023-02-20T04:48:50.498Z,24.40
2023-02-20T04:51:17.689Z,19.52
2023-02-20T04:53:46.037Z,31.85
2023-02-20T04:56:14.611Z,24.92
2023-02-20T04:58:42.092Z,23.90
2023-02-20T05:01:11.507Z,21.80
2023-02-20T05:03:39.799Z,27.83
2023-02-20T05:06:10.424Z,16.15
2023-02-20T05:08:38.727Z,29.80
2023-02-20T05:11:07.043Z,19.67
2023-02-20T05:13:35.332Z,17.65
2023-02-20T05:16:02.501Z,12.30
2023-02-20T05:18:30.544Z,10.13
2023-02-20T05:21:22.282Z,19.58
2023-02-20T05:23:49.678Z,23.40
2023-02-20T05:26:21.380Z,21.73
2023-02-20T05:28:50.767Z,16.75
2023-02-20T05:31:18.280Z,17.90
2023-02-20T05:33:48.592Z,17.60
2023-02-20T05:36:17.875Z,16.13
2023-02-20T05:38:49.125Z,13.43
2023-02-20T05:41:17.106Z,11.80
2023-02-20T05:43:45.875Z,28.60
2023-02-20T05:46:13.406Z,24.90
2023-02-20T05:48:41.049Z,24.40
2023-02-20T05:51:08.447Z,17.98
2023-02-20T05:53:36.700Z,18.92
2023-02-20T05:56:10.110Z,15.52
2023-02-20T05:58:37.693Z,27.45
2023-02-20T06:01:04.918Z,25.20
2023-02-20T06:03:32.425Z,14.60
2023-02-20T06:06:00.948Z,16.90
2023-02-20T06:08:29.201Z,25.95
2023-02-20T06:10:57.436Z,14.32
2023-02-20T06:13:31.583Z,31.67
2023-02-20T06:15:58.984Z,17.70
2023-02-20T06:18:26.349Z,16.88
2023-02-20T06:20:54.692Z,18.88
2023-02-20T06:23:34.004Z,23.00
2023-02-20T06:26:01.269Z,21.73
2023-02-20T06:28:28.598Z,16.98
2023-02-20T06:30:57.053Z,22.75
2023-02-20T06:33:26.415Z,20.63
2023-02-20T06:35:53.574Z,18.48
2023-02-20T06:38:20.668Z,11.07
2023-02-20T06:40:47.833Z,17.17
2023-02-20T06:43:21.066Z,16.63
2023-02-20T06:45:50.220Z,15.20
2023-02-20T06:48:17.702Z,16.75
2023-02-20T06:50:48.951Z,11.75
2023-02-20T06:53:18.192Z,27.27
2023-02-20T06:55:50.785Z,20.83
2023-02-20T06:58:19.902Z,28.65
2023-02-20T07:00:50.624Z,16.40
2023-02-20T07:03:17.753Z,26.33
2023-02-20T07:05:54.721Z,26.10
2023-02-20T07:08:22.407Z,27.08
2023-02-20T07:10:50.995Z,19.13
2023-02-20T07:13:18.213Z,15.13
2023-02-20T07:15:46.597Z,18.33
2023-02-20T07:18:14.130Z,14.55
2023-02-20T07:20:41.436Z,20.92
2023-02-20T07:23:10.797Z,27.73
2023-02-20T07:25:44.818Z,21.33
2023-02-20T07:28:12.461Z,26.55
2023-02-20T07:30:41.208Z,14.70
2023-02-20T07:33:12.317Z,22.20
2023-02-20T07:35:39.675Z,8.80
2023-02-20T07:38:14.192Z,18.85
2023-02-20T07:40:41.635Z,22.58
2023-02-20T07:43:30.887Z,23.05
2023-02-20T07:46:02.849Z,20.52
2023-02-20T07:48:30.072Z,23.92
2023-02-20T07:50:57.515Z,32.15
2023-02-20T07:53:24.858Z,18.65
2023-02-20T07:55:52.181Z,16.83
2023-02-20T07:58:19.720Z,10.77
2023-02-20T08:00:54.025Z,14.88
2023-02-20T08:03:21.345Z,18.92
2023-02-20T08:05:49.959Z,13.43
2023-02-20T08:08:17.818Z,19.27
2023-02-20T08:10:47.023Z,17.50
2023-02-20T08:13:22.433Z,15.32
2023-02-20T08:15:58.723Z,17.38
2023-02-20T08:18:34.069Z,13.38
2023-02-20T08:21:01.425Z,17.73
2023-02-20T08:23:30.614Z,10.57
2023-02-20T08:25:57.973Z,12.82
2023-02-20T08:28:27.278Z,14.88
2023-02-20T08:30:54.472Z,13.65
2023-02-20T08:33:21.707Z,20.73
2023-02-20T08:35:53.994Z,13.95
2023-02-20T08:38:35.693Z,23.67
2023-02-20T08:41:10.029Z,25.60
2023-02-20T08:43:43.449Z,10.95
2023-02-20T08:46:13.354Z,15.95
2023-02-20T08:48:41.948Z,27.17
2023-02-20T08:51:20.050Z,27.65
2023-02-20T08:53:48.370Z,34.33
2023-02-20T08:56:18.752Z,18.67
2023-02-20T08:58:46.141Z,24.70
2023-02-20T09:01:19.612Z,21.05
2023-02-20T09:03:49.299Z,17.52
2023-02-20T09:06:25.915Z,24.80
2023-02-20T09:08:53.460Z,17.27
2023-02-20T09:11:22.975Z,7.50
2023-02-20T09:13:51.272Z,12.02
2023-02-20T09:16:25.127Z,10.18
2023-02-20T09:18:56.379Z,20.00
2023-02-20T09:21:30.588Z,23.63
2023-02-20T09:23:58.761Z,20.92
2023-02-20T09:26:27.100Z,17.50
2023-02-20T09:28:55.374Z,26.38
2023-02-20T09:31:22.834Z,16.05
2023-02-20T09:33:55.351Z,24.67
2023-02-20T09:36:22.633Z,9.32
2023-02-20T09:38:51.763Z,24.33
2023-02-20T09:41:28.036Z,18.50
2023-02-20T09:44:11.891Z,15.40
2023-02-20T09:46:39.195Z,17.55
2023-02-20T09:49:09.543Z,14.02
2023-02-20T09:51:39.113Z,9.65
2023-02-20T09:54:11.555Z,15.07
2023-02-20T09:56:41.453Z,12.70
2023-02-20T09:59:16.072Z,18.08
2023-02-20T10:02:02.440Z,23.38
2023-02-20T10:04:52.314Z,21.73
2023-02-20T10:07:36.839Z,18.25
2023-02-20T10:10:25.604Z,20.00
2023-02-20T10:12:58.507Z,15.27
2023-02-20T10:15:38.847Z,19.25
2023-02-20T10:18:30.103Z,16.23
2023-02-20T10:21:09.040Z,13.55
2023-02-20T10:23:47.275Z,15.55
2023-02-20T10:26:37.981Z,12.05
2023-02-20T10:29:18.205Z,11.57
2023-02-20T10:31:50.530Z,7.68
2023-02-20T10:34:20.340Z,7.95
2023-02-20T10:36:52.637Z,6.30
2023-02-20T10:39:21.975Z,8.95
2023-02-20T10:41:56.680Z,6.47
2023-02-20T10:44:37.654Z,11.25
2023-02-20T10:47:22.601Z,11.75
2023-02-20T10:49:59.393Z,9.85
2023-02-20T10:52:53.170Z,4.50
2023-02-20T10:55:35.869Z,9.13
2023-02-20T10:58:40.469Z,5.15
2023-02-20T11:01:11.151Z,6.85
2023-02-20T11:03:39.078Z,9.23
2023-02-20T11:06:08.447Z,5.78
2023-02-20T11:08:36.351Z,6.65
2023-02-20T11:11:26.244Z,3.92
2023-02-20T11:13:55.729Z,8.20
2023-02-20T11:16:31.368Z,7.25
2023-02-20T11:19:04.261Z,16.05
2023-02-20T11:21:39.859Z,7.85
2023-02-20T11:24:26.630Z,5.30
2023-02-20T11:26:58.806Z,11.25
2023-02-20T11:29:29.946Z,8.23
2023-02-20T11:32:14.948Z,8.43
2023-02-20T11:34:42.504Z,8.48
2023-02-20T11:37:12.699Z,14.00
2023-02-20T11:39:46.660Z,11.95
2023-02-20T11:42:14.995Z,10.48
2023-02-20T11:44:42.704Z,14.65
2023-02-20T11:47:17.610Z,13.00
2023-02-20T11:49:45.233Z,7.47
2023-02-20T11:52:22.515Z,5.80
2023-02-20T11:55:10.568Z,11.48
2023-02-20T11:57:43.888Z,4.95
2023-02-20T12:00:17.633Z,8.45
2023-02-20T12:02:51.998Z,11.60
2023-02-20T12:05:20.362Z,8.80
2023-02-20T12:07:53.581Z,8.73
2023-02-20T12:10:29.814Z,5.63
2023-02-20T12:12:57.169Z,11.48
2023-02-20T12:15:26.261Z,6.28
2023-02-20T12:17:59.524Z,12.15
2023-02-20T12:20:28.039Z,12.23
2023-02-20T12:23:15.567Z,10.07
2023-02-20T12:25:59.746Z,9.43
2023-02-20T12:28:37.527Z,7.47
2023-02-20T12:31:22.256Z,5.90
2023-02-20T12:34:00.909Z,6.40
2023-02-20T12:36:28.204Z,12.07
2023-02-20T12:38:59.015Z,5.35
2023-02-20T12:41:32.646Z,4.70
2023-02-20T12:44:18.589Z,8.38
2023-02-20T12:46:57.795Z,7.63
2023-02-20T12:49:49.666Z,4.78
2023-02-20T12:52:31.431Z,4.82
2023-02-20T12:55:24.834Z,7.82
2023-02-20T12:58:06.605Z,5.97
2023-02-20T13:00:40.296Z,10.18
2023-02-20T13:03:16.734Z,6.18
2023-02-20T13:05:50.951Z,6.43
2023-02-20T13:08:28.811Z,7.88
2023-02-20T13:11:04.535Z,5.95
2023-02-20T13:13:55.469Z,6.25
2023-02-20T13:16:28.991Z,12.13
2023-02-20T13:19:05.652Z,5.00
2023-02-20T13:21:33.592Z,8.27
2023-02-20T13:24:21.940Z,9.73
2023-02-20T13:26:50.327Z,13.15
2023-02-20T13:29:26.610Z,5.30
2023-02-20T13:31:55.383Z,17.45
2023-02-20T13:34:22.727Z,7.43
2023-02-20T13:36:50.774Z,7.30
2023-02-20T13:39:19.057Z,8.40
2023-02-20T13:41:55.380Z,5.50
2023-02-20T13:44:34.862Z,7.47
2023-02-20T13:47:08.956Z,4.90
2023-02-20T13:49:51.250Z,4.10
2023-02-20T13:52:31.741Z,10.32
2023-02-20T13:55:19.298Z,6.20
2023-02-20T13:57:53.439Z,9.25
2023-02-20T14:00:45.433Z,7.72
2023-02-20T14:03:14.069Z,15.15
2023-02-20T14:05:42.705Z,13.13
2023-02-20T14:08:19.895Z,11.15
2023-02-20T14:10:49.650Z,6.20
2023-02-20T14:13:30.855Z,5.18
2023-02-20T14:16:22.824Z,6.57
2023-02-20T14:18:50.428Z,15.75
2023-02-20T14:21:21.289Z,9.65
2023-02-20T14:23:50.351Z,13.60
2023-02-20T14:26:25.444Z,10.35
2023-02-20T14:28:55.167Z,9.68
2023-02-20T14:31:23.691Z,8.65
2023-02-20T14:33:52.207Z,6.20
2023-02-20T14:36:33.694Z,10.85
2023-02-20T14:39:17.045Z,8.07
2023-02-20T14:41:58.314Z,6.47
2023-02-20T14:44:26.060Z,5.13
2023-02-20T14:47:03.266Z,7.32
2023-02-20T14:49:31.298Z,4.22
2023-02-20T14:52:05.664Z,10.60
2023-02-20T14:54:37.135Z,6.70
2023-02-20T14:57:05.000Z,6.72
2023-02-20T14:59:38.684Z,12.15
2023-02-20T15:02:34.638Z,8.38
2023-02-20T15:05:04.193Z,11.50
2023-02-20T15:07:32.021Z,9.93
2023-02-20T15:10:02.187Z,7.75
2023-02-20T15:12:40.167Z,8.05
2023-02-20T15:15:12.453Z,8.32
2023-02-20T15:17:46.121Z,4.90
2023-02-20T15:20:42.935Z,16.75
2023-02-20T15:23:28.259Z,5.82
2023-02-20T15:25:55.556Z,9.98
2023-02-20T15:28:31.040Z,11.10
2023-02-20T15:31:03.334Z,16.38
2023-02-20T15:33:33.561Z,8.35
2023-02-20T15:36:01.136Z,15.02
2023-02-20T15:38:33.143Z,11.20
2023-02-20T15:41:02.439Z,11.98
2023-02-20T15:43:45.527Z,5.50
2023-02-20T15:46:22.229Z,10.18
2023-02-20T15:48:49.590Z,7.90
2023-02-20T15:51:22.792Z,8.57
2023-02-20T15:53:52.004Z,11.02
2023-02-20T15:56:20.411Z,13.32
2023-02-20T15:58:50.650Z,12.77
2023-02-20T16:01:19.220Z,17.38
2023-02-20T16:03:53.283Z,12.43
2023-02-20T16:06:21.950Z,18.85
2023-02-20T16:08:52.354Z,12.27
2023-02-20T16:11:24.984Z,16.70
2023-02-20T16:14:00.625Z,9.10
2023-02-20T16:16:41.640Z,21.80
2023-02-20T16:19:23.930Z,11.55
2023-02-20T16:21:59.470Z,20.52
2023-02-20T16:24:27.744Z,15.48
2023-02-20T16:26:55.455Z,22.25
2023-02-20T16:29:32.943Z,17.75
2023-02-20T16:32:03.472Z,26.98
2023-02-20T16:34:37.974Z,14.18
2023-02-20T16:37:06.091Z,25.67
2023-02-20T16:39:35.343Z,21.20
2023-02-20T16:42:03.598Z,26.38
2023-02-20T16:44:41.392Z,16.63
2023-02-20T16:47:17.287Z,18.33
2023-02-20T16:49:44.793Z,24.92
2023-02-20T16:52:17.890Z,22.13
2023-02-20T16:54:46.419Z,20.85
2023-02-20T16:57:14.260Z,16.50
2023-02-20T16:59:45.798Z,18.98
2023-02-20T17:02:17.679Z,25.80
2023-02-20T17:04:46.180Z,31.95
2023-02-20T17:07:14.807Z,31.63
2023-02-20T17:09:46.508Z,25.05
2023-02-20T17:12:17.326Z,19.23
2023-02-20T17:14:46.992Z,21.33
2023-02-20T17:17:14.887Z,36.83
2023-02-20T17:19:42.745Z,30.52
2023-02-20T17:22:13.138Z,33.42
2023-02-20T17:24:56.412Z,26.70
2023-02-20T17:27:32.581Z,33.22
2023-02-20T17:30:02.999Z,28.75
2023-02-20T17:32:32.336Z,28.60
2023-02-20T17:35:00.646Z,25.67
2023-02-20T17:37:30.650Z,28.38
2023-02-20T17:39:58.483Z,28.83
2023-02-20T17:42:25.801Z,25.33
2023-02-20T17:44:55.737Z,27.55
2023-02-20T17:47:24.487Z,25.10
2023-02-20T17:49:57.280Z,26.95
2023-02-20T17:52:27.795Z,27.90
2023-02-20T17:54:55.453Z,29.55
2023-02-20T17:57:26.484Z,22.25
2023-02-20T17:59:53.812Z,18.60
2023-02-20T18:02:22.076Z,28.48
2023-02-20T18:04:54.281Z,30.80
2023-02-20T18:07:21.750Z,25.80
2023-02-20T18:09:49.123Z,31.85
2023-02-20T18:12:16.437Z,27.30
2023-02-20T18:14:51.061Z,26.92
2023-02-20T18:17:18.566Z,34.50
2023-02-20T18:19:45.716Z,32.28
2023-02-20T18:22:13.156Z,23.02
2023-02-20T18:24:43.778Z,36.35
2023-02-20T18:27:11.000Z,40.58
2023-02-20T18:29:38.431Z,27.27
2023-02-20T18:32:12.714Z,32.28
2023-02-20T18:34:41.083Z,28.63
2023-02-20T18:37:10.265Z,32.10
2023-02-20T18:39:37.605Z,46.88
2023-02-20T18:42:04.996Z,42.97
2023-02-20T18:44:32.372Z,27.60
2023-02-20T18:47:00.998Z,41.10
2023-02-20T18:49:29.505Z,54.13
2023-02-20T18:51:58.754Z,49.90
2023-02-20T18:54:30.418Z,47.25
2023-02-20T18:57:03.864Z,46.75
2023-02-20T18:59:31.230Z,52.45
2023-02-20T19:02:03.394Z,52.83
2023-02-20T19:04:33.230Z,45.30
2023-02-20T19:07:03.553Z,53.97
2023-02-20T19:09:36.842Z,49.30
2023-02-20T19:12:11.961Z,37.40
2023-02-20T19:14:39.888Z,44.95
2023-02-20T19:17:07.886Z,52.47
2023-02-20T19:19:35.462Z,50.05
2023-02-20T19:22:02.903Z,55.95
2023-02-20T19:24:30.404Z,52.85
2023-02-20T19:26:57.662Z,56.35
2023-02-20T19:29:27.226Z,52.50
2023-02-20T19:31:56.604Z,58.28
2023-02-20T19:34:24.075Z,46.13
2023-02-20T19:36:53.487Z,50.90
2023-02-20T19:39:22.079Z,49.13
2023-02-20T19:41:49.998Z,44.45
2023-02-20T19:44:18.710Z,30.30
2023-02-20T19:46:47.038Z,39.88
2023-02-20T19:49:15.693Z,45.72
2023-02-20T19:51:53.756Z,44.13
2023-02-20T19:54:28.290Z,32.97
2023-02-20T19:56:59.385Z,41.75
2023-02-20T19:59:42.787Z,40.75
2023-02-20T20:02:12.745Z,32.42
2023-02-20T20:04:40.129Z,23.15
2023-02-20T20:07:09.428Z,38.20
2023-02-20T20:09:38.262Z,29.33
2023-02-20T20:12:27.958Z,40.65
2023-02-20T20:14:56.216Z,44.90
2023-02-20T20:17:23.602Z,63.40
2023-02-20T20:19:59.036Z,45.15
2023-02-20T20:22:31.293Z,37.28
2023-02-20T20:24:59.975Z,36.60
2023-02-20T20:27:27.313Z,42.30
2023-02-20T20:29:56.940Z,38.00
2023-02-20T20:32:24.548Z,59.50
2023-02-20T20:34:53.114Z,45.28
2023-02-20T20:37:21.034Z,47.63
2023-02-20T20:39:50.154Z,40.78
2023-02-20T20:42:18.009Z,57.15
2023-02-20T20:44:46.386Z,49.92
2023-02-20T20:47:13.538Z,52.28
2023-02-20T20:49:41.630Z,36.38
2023-02-20T20:52:17.052Z,34.05
2023-02-20T20:54:49.114Z,45.30
2023-02-20T20:57:17.018Z,41.97
2023-02-20T20:59:46.502Z,30.38
2023-02-20T21:02:22.326Z,34.55
2023-02-20T21:04:52.881Z,37.55
2023-02-20T21:07:24.680Z,59.35
2023-02-20T21:09:58.331Z,52.28
2023-02-20T21:12:26.651Z,58.90
2023-02-20T21:14:54.890Z,61.20
2023-02-20T21:17:24.158Z,60.67
2023-02-20T21:19:55.431Z,59.30
2023-02-20T21:22:31.029Z,58.75
2023-02-20T21:25:03.607Z,60.60
2023-02-20T21:27:32.887Z,57.17
2023-02-20T21:30:05.952Z,48.60
2023-02-20T21:32:42.224Z,52.80
2023-02-20T21:35:16.303Z,35.83
2023-02-20T21:37:43.508Z,42.92
2023-02-20T21:40:12.141Z,35.55
2023-02-20T21:42:58.065Z,58.08
2023-02-20T21:45:25.301Z,47.10
2023-02-20T21:47:52.695Z,36.95
2023-02-20T21:50:29.863Z,65.25
2023-02-20T21:52:57.431Z,38.35
2023-02-20T21:55:26.861Z,47.17
2023-02-20T21:57:54.478Z,43.05
2023-02-20T22:00:28.802Z,49.33
2023-02-20T22:02:57.177Z,60.50
2023-02-20T22:05:25.369Z,34.35
2023-02-20T22:08:11.245Z,63.97
2023-02-20T22:10:58.145Z,36.72
2023-02-20T22:13:52.159Z,53.55
2023-02-20T22:16:44.252Z,51.00
2023-02-20T22:19:30.139Z,45.67
2023-02-20T22:22:20.156Z,61.13
2023-02-20T22:25:06.090Z,55.30
2023-02-20T22:27:53.146Z,39.45
2023-02-20T22:30:44.060Z,58.83
2023-02-20T22:33:30.224Z,49.13
2023-02-20T22:36:17.257Z,59.08
2023-02-20T22:39:03.163Z,37.22
2023-02-20T22:41:49.034Z,32.10
2023-02-20T22:44:34.878Z,64.38
2023-02-20T22:47:33.136Z,58.10
2023-02-20T22:50:25.436Z,47.65
2023-02-20T22:53:12.593Z,54.90
2023-02-20T22:55:58.484Z,46.08
2023-02-20T22:58:44.577Z,50.17
2023-02-20T23:01:33.589Z,65.30
2023-02-20T23:04:20.853Z,51.67
2023-02-20T23:07:16.380Z,45.03
2023-02-20T23:10:02.687Z,42.30
2023-02-20T23:12:49.750Z,25.23
2023-02-20T23:15:37.092Z,32.08
2023-02-20T23:18:35.788Z,44.70
2023-02-20T23:21:27.526Z,34.30
2023-02-20T23:24:14.852Z,30.75
2023-02-20T23:27:01.784Z,50.40
2023-02-20T23:29:49.403Z,40.83
2023-02-20T23:32:37.354Z,42.03
2023-02-20T23:35:35.490Z,31.50
2023-02-20T23:38:21.610Z,25.60
2023-02-20T23:41:15.135Z,39.33
2023-02-20T23:44:01.415Z,40.13
2023-02-20T23:46:54.147Z,43.40
2023-02-20T23:49:43.510Z,50.58
2023-02-20T23:52:30.502Z,53.90
2023-02-20T23:55:16.793Z,27.55
2023-02-20T23:58:06.651Z,44.20
